Hlavní strana
METAR-TAF:

METAR-TAF

Letiště :

Antananarivo, Madagaskar

Letiště Antananarivo

zeměpisná šířka: 18-48S, zeměpisná délka: 047-29E, výška: 1279 m

Aktuální stav počasí

Zpráva byla vytvořena před 36 minutami, v 09:00 UTC
vítr z různých směrů 2 kt
Teplota 26°C
Vlhkost vzduchu 65%
Tlak 1016 hPa
Viditelnost 10 km a více
Polojasno ve výšce 2000 ft

METAR: FMMI 240900Z VRB02KT 9999 SCT020 26/19 Q1016 NOSIG

Čas: 12:36 (09:36 UTC)

Předpověď počasí

Zpráva byla vytvořena před 4 hodinami a 36 minutami, v 05:00 UTC
Předpověď platná od 24 v 06 UTC do 25 v 12 UTC
Východojihovýchodní vítr 6 kt
Viditelnost 10 km a více
Skoro jasno ve výšce 1700 ft
Oblačno až skoro zataženo ve výšce 2000 ft
Pravděpodobnost 40% :
Dočasný
od 24 v 11 UTC do 24 v 22 UTC
Viditelnost: 4000 m
Skoro jasno ve výšce 1000 ft
Oblačno až skoro zataženo ve výšce 1500 ft, Cumulonimbus.
bouřka, déšť

TAF: FMMI 240500Z 2406/2512 12006KT 9999 FEW017 BKN020 PROB40 TEMPO 2411/2422 4000 TSRA FEW010 BKN015CB

Stav a předpovědi počasí z více než 4 000 letišť (zprávy METAR a TAF).

Červené a žluté tečky na mapě představují dostupné meteorologické stanice.

Když kurzor umístíte na tečku, zobrazí se název stanice.

Pak kliknutím zobrazíte stav a předpověď počasí.

Chcete-li změnit mapu, kliknutím na zelené tlačítko se znaménkem +mapu přiblížíte, kliknutím na zelené tlačítko se znaménkem – mapu oddálíte a kliknutím na zelené šipky přejdete na sousední mapy.


METAR-TAF: